sensor_id;sensor_type;location;lat;lon;timestamp;temperature;humidity
2571;DHT22;1295;51.130;6.732;2023-12-29T00:00:16;10.60;99.90
2571;DHT22;1295;51.130;6.732;2023-12-29T00:02:42;10.60;99.90
2571;DHT22;1295;51.130;6.732;2023-12-29T00:05:07;10.60;99.90
2571;DHT22;1295;51.130;6.732;2023-12-29T00:07:34;10.60;99.90
2571;DHT22;1295;51.130;6.732;2023-12-29T00:10:05;10.60;99.90
2571;DHT22;1295;51.130;6.732;2023-12-29T00:12:41;10.60;99.90
2571;DHT22;1295;51.130;6.732;2023-12-29T00:15:07;10.60;99.90
2571;DHT22;1295;51.130;6.732;2023-12-29T00:17:33;10.60;99.90
2571;DHT22;1295;51.130;6.732;2023-12-29T00:19:59;10.60;99.90
2571;DHT22;1295;51.130;6.732;2023-12-29T00:22:25;10.70;99.90
2571;DHT22;1295;51.130;6.732;2023-12-29T00:24:50;10.70;99.90
2571;DHT22;1295;51.130;6.732;2023-12-29T00:27:16;10.70;99.90
2571;DHT22;1295;51.130;6.732;2023-12-29T00:29:42;10.60;99.90
2571;DHT22;1295;51.130;6.732;2023-12-29T00:32:07;10.70;99.90
2571;DHT22;1295;51.130;6.732;2023-12-29T00:34:33;10.70;99.90
2571;DHT22;1295;51.130;6.732;2023-12-29T00:36:59;10.60;99.90
2571;DHT22;1295;51.130;6.732;2023-12-29T00:39:24;10.60;99.90
2571;DHT22;1295;51.130;6.732;2023-12-29T00:41:50;10.60;99.90
2571;DHT22;1295;51.130;6.732;2023-12-29T00:44:15;10.60;99.90
2571;DHT22;1295;51.130;6.732;2023-12-29T00:46:41;10.60;99.90
2571;DHT22;1295;51.130;6.732;2023-12-29T00:49:07;10.60;99.90
2571;DHT22;1295;51.130;6.732;2023-12-29T00:51:33;10.60;99.90
2571;DHT22;1295;51.130;6.732;2023-12-29T00:53:59;10.60;99.90
2571;DHT22;1295;51.130;6.732;2023-12-29T00:56:25;10.60;99.90
2571;DHT22;1295;51.130;6.732;2023-12-29T00:58:51;10.60;99.90
2571;DHT22;1295;51.130;6.732;2023-12-29T01:01:16;10.60;99.90
2571;DHT22;1295;51.130;6.732;2023-12-29T01:03:42;10.60;99.90
2571;DHT22;1295;51.130;6.732;2023-12-29T01:06:08;10.60;99.90
2571;DHT22;1295;51.130;6.732;2023-12-29T01:08:34;10.60;99.90
2571;DHT22;1295;51.130;6.732;2023-12-29T01:11:00;10.60;99.90
2571;DHT22;1295;51.130;6.732;2023-12-29T01:13:30;10.60;99.90
2571;DHT22;1295;51.130;6.732;2023-12-29T01:15:56;10.60;99.90
2571;DHT22;1295;51.130;6.732;2023-12-29T01:18:21;10.60;99.90
2571;DHT22;1295;51.130;6.732;2023-12-29T01:20:47;10.60;99.90
2571;DHT22;1295;51.130;6.732;2023-12-29T01:23:13;10.60;99.90
2571;DHT22;1295;51.130;6.732;2023-12-29T01:25:39;10.60;99.90
2571;DHT22;1295;51.130;6.732;2023-12-29T01:28:05;10.50;99.90
2571;DHT22;1295;51.130;6.732;2023-12-29T01:30:31;10.60;99.90
2571;DHT22;1295;51.130;6.732;2023-12-29T01:32:56;10.60;99.90
2571;DHT22;1295;51.130;6.732;2023-12-29T01:35:22;10.60;99.90
2571;DHT22;1295;51.130;6.732;2023-12-29T01:37:48;10.60;99.90
2571;DHT22;1295;51.130;6.732;2023-12-29T01:40:14;10.60;99.90
2571;DHT22;1295;51.130;6.732;2023-12-29T01:42:40;10.60;99.90
2571;DHT22;1295;51.130;6.732;2023-12-29T01:45:05;10.60;99.90
2571;DHT22;1295;51.130;6.732;2023-12-29T01:47:32;10.60;99.90
2571;DHT22;1295;51.130;6.732;2023-12-29T01:49:59;10.50;99.90
2571;DHT22;1295;51.130;6.732;2023-12-29T01:52:24;10.50;99.90
2571;DHT22;1295;51.130;6.732;2023-12-29T01:54:50;10.50;99.90
2571;DHT22;1295;51.130;6.732;2023-12-29T01:57:16;10.50;99.90
2571;DHT22;1295;51.130;6.732;2023-12-29T01:59:41;10.50;99.90
2571;DHT22;1295;51.130;6.732;2023-12-29T02:02:07;10.50;99.90
2571;DHT22;1295;51.130;6.732;2023-12-29T02:04:32;10.50;99.90
2571;DHT22;1295;51.130;6.732;2023-12-29T02:06:58;10.50;99.90
2571;DHT22;1295;51.130;6.732;2023-12-29T02:09:24;10.50;99.90
2571;DHT22;1295;51.130;6.732;2023-12-29T02:11:49;10.50;99.90
2571;DHT22;1295;51.130;6.732;2023-12-29T02:14:15;10.50;99.90
2571;DHT22;1295;51.130;6.732;2023-12-29T02:16:59;10.50;99.90
2571;DHT22;1295;51.130;6.732;2023-12-29T02:19:30;10.50;99.90
2571;DHT22;1295;51.130;6.732;2023-12-29T02:21:50;10.50;99.90
2571;DHT22;1295;51.130;6.732;2023-12-29T02:24:16;10.50;99.90
2571;DHT22;1295;51.130;6.732;2023-12-29T02:26:42;10.50;99.90
2571;DHT22;1295;51.130;6.732;2023-12-29T02:29:07;10.50;99.90
2571;DHT22;1295;51.130;6.732;2023-12-29T02:31:33;10.40;99.90
2571;DHT22;1295;51.130;6.732;2023-12-29T02:33:58;10.40;99.90
2571;DHT22;1295;51.130;6.732;2023-12-29T02:36:24;10.40;99.90
2571;DHT22;1295;51.130;6.732;2023-12-29T02:38:50;10.40;99.90
2571;DHT22;1295;51.130;6.732;2023-12-29T02:41:15;10.30;99.90
2571;DHT22;1295;51.130;6.732;2023-12-29T02:43:41;10.30;99.90
2571;DHT22;1295;51.130;6.732;2023-12-29T02:46:07;10.40;99.90
2571;DHT22;1295;51.130;6.732;2023-12-29T02:48:32;10.40;99.90
2571;DHT22;1295;51.130;6.732;2023-12-29T02:50:58;10.30;99.90
2571;DHT22;1295;51.130;6.732;2023-12-29T02:53:23;10.30;99.90
2571;DHT22;1295;51.130;6.732;2023-12-29T02:55:49;10.40;99.90
2571;DHT22;1295;51.130;6.732;2023-12-29T02:58:15;10.40;99.90
2571;DHT22;1295;51.130;6.732;2023-12-29T03:00:40;10.40;99.90
2571;DHT22;1295;51.130;6.732;2023-12-29T03:03:06;10.40;99.90
2571;DHT22;1295;51.130;6.732;2023-12-29T03:05:32;10.30;99.90
2571;DHT22;1295;51.130;6.732;2023-12-29T03:07:57;10.30;99.90
2571;DHT22;1295;51.130;6.732;2023-12-29T03:10:23;10.30;99.90
2571;DHT22;1295;51.130;6.732;2023-12-29T03:12:48;10.30;99.90
2571;DHT22;1295;51.130;6.732;2023-12-29T03:15:14;10.30;99.90
2571;DHT22;1295;51.130;6.732;2023-12-29T03:17:40;10.30;99.90
2571;DHT22;1295;51.130;6.732;2023-12-29T03:20:07;10.30;99.90
2571;DHT22;1295;51.130;6.732;2023-12-29T03:22:33;10.30;99.90
2571;DHT22;1295;51.130;6.732;2023-12-29T03:24:59;10.30;99.90
2571;DHT22;1295;51.130;6.732;2023-12-29T03:27:24;10.30;99.90
2571;DHT22;1295;51.130;6.732;2023-12-29T03:29:50;10.30;99.90
2571;DHT22;1295;51.130;6.732;2023-12-29T03:32:15;10.30;99.90
2571;DHT22;1295;51.130;6.732;2023-12-29T03:34:41;10.30;99.90
2571;DHT22;1295;51.130;6.732;2023-12-29T03:37:07;10.30;99.90
2571;DHT22;1295;51.130;6.732;2023-12-29T03:39:33;10.30;99.90
2571;DHT22;1295;51.130;6.732;2023-12-29T03:41:58;10.30;99.90
2571;DHT22;1295;51.130;6.732;2023-12-29T03:44:25;10.40;99.90
2571;DHT22;1295;51.130;6.732;2023-12-29T03:46:50;10.40;99.90
2571;DHT22;1295;51.130;6.732;2023-12-29T03:49:17;10.40;99.90
2571;DHT22;1295;51.130;6.732;2023-12-29T03:51:42;10.30;99.90
2571;DHT22;1295;51.130;6.732;2023-12-29T03:54:09;10.40;99.90
2571;DHT22;1295;51.130;6.732;2023-12-29T03:56:34;10.40;99.90
2571;DHT22;1295;51.130;6.732;2023-12-29T03:59:05;10.40;99.90
2571;DHT22;1295;51.130;6.732;2023-12-29T04:01:36;10.40;99.90
2571;DHT22;1295;51.130;6.732;2023-12-29T04:04:02;10.40;99.90
2571;DHT22;1295;51.130;6.732;2023-12-29T04:06:28;10.40;99.90
2571;DHT22;1295;51.130;6.732;2023-12-29T04:08:53;10.40;99.90
2571;DHT22;1295;51.130;6.732;2023-12-29T04:11:19;10.40;99.90
2571;DHT22;1295;51.130;6.732;2023-12-29T04:13:44;10.40;99.90
2571;DHT22;1295;51.130;6.732;2023-12-29T04:16:10;10.40;99.90
2571;DHT22;1295;51.130;6.732;2023-12-29T04:18:36;10.40;99.90
2571;DHT22;1295;51.130;6.732;2023-12-29T04:21:02;10.40;99.90
2571;DHT22;1295;51.130;6.732;2023-12-29T04:23:28;10.40;99.90
2571;DHT22;1295;51.130;6.732;2023-12-29T04:25:54;10.40;99.90
2571;DHT22;1295;51.130;6.732;2023-12-29T04:28:20;10.40;99.90
2571;DHT22;1295;51.130;6.732;2023-12-29T04:30:46;10.40;99.90
2571;DHT22;1295;51.130;6.732;2023-12-29T04:33:11;10.40;99.90
2571;DHT22;1295;51.130;6.732;2023-12-29T04:35:38;10.50;99.90
2571;DHT22;1295;51.130;6.732;2023-12-29T04:38:03;10.50;99.90
2571;DHT22;1295;51.130;6.732;2023-12-29T04:40:29;10.50;99.90
2571;DHT22;1295;51.130;6.732;2023-12-29T04:42:55;10.50;99.90
2571;DHT22;1295;51.130;6.732;2023-12-29T04:45:20;10.50;99.90
2571;DHT22;1295;51.130;6.732;2023-12-29T04:47:46;10.50;99.90
2571;DHT22;1295;51.130;6.732;2023-12-29T04:50:12;10.40;99.90
2571;DHT22;1295;51.130;6.732;2023-12-29T04:52:38;10.40;99.90
2571;DHT22;1295;51.130;6.732;2023-12-29T04:55:04;10.40;99.90
2571;DHT22;1295;51.130;6.732;2023-12-29T04:57:36;10.40;99.90
2571;DHT22;1295;51.130;6.732;2023-12-29T05:00:13;10.40;99.90
2571;DHT22;1295;51.130;6.732;2023-12-29T05:02:39;10.50;99.90
2571;DHT22;1295;51.130;6.732;2023-12-29T05:05:05;10.40;99.90
2571;DHT22;1295;51.130;6.732;2023-12-29T05:07:31;10.40;99.90
2571;DHT22;1295;51.130;6.732;2023-12-29T05:09:57;10.40;99.90
2571;DHT22;1295;51.130;6.732;2023-12-29T05:12:22;10.40;99.90
2571;DHT22;1295;51.130;6.732;2023-12-29T05:14:48;10.40;99.90
2571;DHT22;1295;51.130;6.732;2023-12-29T05:17:14;10.40;99.90
2571;DHT22;1295;51.130;6.732;2023-12-29T05:19:39;10.40;99.90
2571;DHT22;1295;51.130;6.732;2023-12-29T05:22:05;10.40;99.90
2571;DHT22;1295;51.130;6.732;2023-12-29T05:24:30;10.40;99.90
2571;DHT22;1295;51.130;6.732;2023-12-29T05:26:56;10.40;99.90
2571;DHT22;1295;51.130;6.732;2023-12-29T05:29:22;10.40;99.90
2571;DHT22;1295;51.130;6.732;2023-12-29T05:31:47;10.40;99.90
2571;DHT22;1295;51.130;6.732;2023-12-29T05:34:13;10.40;99.90
2571;DHT22;1295;51.130;6.732;2023-12-29T05:36:39;10.40;99.90
2571;DHT22;1295;51.130;6.732;2023-12-29T05:39:05;10.40;99.90
2571;DHT22;1295;51.130;6.732;2023-12-29T05:41:30;10.30;99.90
2571;DHT22;1295;51.130;6.732;2023-12-29T05:43:56;10.40;99.90
2571;DHT22;1295;51.130;6.732;2023-12-29T05:46:21;10.30;99.90
2571;DHT22;1295;51.130;6.732;2023-12-29T05:48:47;10.40;99.90
2571;DHT22;1295;51.130;6.732;2023-12-29T05:51:13;10.30;99.90
2571;DHT22;1295;51.130;6.732;2023-12-29T05:53:39;10.30;99.90
2571;DHT22;1295;51.130;6.732;2023-12-29T05:56:05;10.30;99.90
2571;DHT22;1295;51.130;6.732;2023-12-29T05:58:35;10.30;99.90
2571;DHT22;1295;51.130;6.732;2023-12-29T06:01:07;10.30;99.90
2571;DHT22;1295;51.130;6.732;2023-12-29T06:03:33;10.30;99.90
2571;DHT22;1295;51.130;6.732;2023-12-29T06:05:59;10.30;99.90
2571;DHT22;1295;51.130;6.732;2023-12-29T06:08:25;10.30;99.90
2571;DHT22;1295;51.130;6.732;2023-12-29T06:10:51;10.30;99.90
2571;DHT22;1295;51.130;6.732;2023-12-29T06:13:17;10.30;99.90
2571;DHT22;1295;51.130;6.732;2023-12-29T06:15:42;10.30;99.90
2571;DHT22;1295;51.130;6.732;2023-12-29T06:18:08;10.30;99.90
2571;DHT22;1295;51.130;6.732;2023-12-29T06:20:34;10.30;99.90
2571;DHT22;1295;51.130;6.732;2023-12-29T06:22:59;10.30;99.90
2571;DHT22;1295;51.130;6.732;2023-12-29T06:25:25;10.30;99.90
2571;DHT22;1295;51.130;6.732;2023-12-29T06:27:51;10.30;99.90
2571;DHT22;1295;51.130;6.732;2023-12-29T06:30:17;10.30;99.90
2571;DHT22;1295;51.130;6.732;2023-12-29T06:32:42;10.30;99.90
2571;DHT22;1295;51.130;6.732;2023-12-29T06:35:08;10.30;99.90
2571;DHT22;1295;51.130;6.732;2023-12-29T06:37:34;10.30;99.90
2571;DHT22;1295;51.130;6.732;2023-12-29T06:40:00;10.30;99.90
2571;DHT22;1295;51.130;6.732;2023-12-29T06:42:26;10.30;99.90
2571;DHT22;1295;51.130;6.732;2023-12-29T06:44:52;10.30;99.90
2571;DHT22;1295;51.130;6.732;2023-12-29T06:47:17;10.30;99.90
2571;DHT22;1295;51.130;6.732;2023-12-29T06:49:43;10.30;99.90
2571;DHT22;1295;51.130;6.732;2023-12-29T06:52:09;10.30;99.90
2571;DHT22;1295;51.130;6.732;2023-12-29T06:54:34;10.30;99.90
2571;DHT22;1295;51.130;6.732;2023-12-29T06:57:00;10.20;99.90
2571;DHT22;1295;51.130;6.732;2023-12-29T06:59:26;10.30;99.90
2571;DHT22;1295;51.130;6.732;2023-12-29T07:01:51;10.30;99.90
2571;DHT22;1295;51.130;6.732;2023-12-29T07:04:17;10.30;99.90
2571;DHT22;1295;51.130;6.732;2023-12-29T07:06:43;10.20;99.90
2571;DHT22;1295;51.130;6.732;2023-12-29T07:09:09;10.30;99.90
2571;DHT22;1295;51.130;6.732;2023-12-29T07:11:35;10.30;99.90
2571;DHT22;1295;51.130;6.732;2023-12-29T07:14:00;10.30;99.90
2571;DHT22;1295;51.130;6.732;2023-12-29T07:16:26;10.30;99.90
2571;DHT22;1295;51.130;6.732;2023-12-29T07:18:52;10.30;99.90
2571;DHT22;1295;51.130;6.732;2023-12-29T07:21:17;10.30;99.90
2571;DHT22;1295;51.130;6.732;2023-12-29T07:23:43;10.20;99.90
2571;DHT22;1295;51.130;6.732;2023-12-29T07:26:09;10.30;99.90
2571;DHT22;1295;51.130;6.732;2023-12-29T07:28:34;10.30;99.90
2571;DHT22;1295;51.130;6.732;2023-12-29T07:31:00;10.30;99.90
2571;DHT22;1295;51.130;6.732;2023-12-29T07:33:26;10.30;99.90
2571;DHT22;1295;51.130;6.732;2023-12-29T07:35:52;10.30;99.90
2571;DHT22;1295;51.130;6.732;2023-12-29T07:38:17;10.30;99.90
2571;DHT22;1295;51.130;6.732;2023-12-29T07:40:43;10.30;99.90
2571;DHT22;1295;51.130;6.732;2023-12-29T07:43:09;10.30;99.90
2571;DHT22;1295;51.130;6.732;2023-12-29T07:45:35;10.20;99.90
2571;DHT22;1295;51.130;6.732;2023-12-29T07:48:02;10.20;99.90
2571;DHT22;1295;51.130;6.732;2023-12-29T07:50:27;10.20;99.90
2571;DHT22;1295;51.130;6.732;2023-12-29T07:52:53;10.10;99.90
2571;DHT22;1295;51.130;6.732;2023-12-29T07:55:18;10.10;99.90
2571;DHT22;1295;51.130;6.732;2023-12-29T07:57:44;10.20;99.90
2571;DHT22;1295;51.130;6.732;2023-12-29T08:00:10;10.20;99.90
2571;DHT22;1295;51.130;6.732;2023-12-29T08:02:36;10.10;99.90
2571;DHT22;1295;51.130;6.732;2023-12-29T08:05:01;10.10;99.90
2571;DHT22;1295;51.130;6.732;2023-12-29T08:07:27;10.10;99.90
2571;DHT22;1295;51.130;6.732;2023-12-29T08:09:53;10.00;99.90
2571;DHT22;1295;51.130;6.732;2023-12-29T08:12:19;10.00;99.90
2571;DHT22;1295;51.130;6.732;2023-12-29T08:14:45;10.00;99.90
2571;DHT22;1295;51.130;6.732;2023-12-29T08:17:11;10.00;99.90
2571;DHT22;1295;51.130;6.732;2023-12-29T08:19:36;10.00;99.90
2571;DHT22;1295;51.130;6.732;2023-12-29T08:22:02;9.90;99.90
2571;DHT22;1295;51.130;6.732;2023-12-29T08:24:28;10.00;99.90
2571;DHT22;1295;51.130;6.732;2023-12-29T08:26:54;10.00;99.90
2571;DHT22;1295;51.130;6.732;2023-12-29T08:29:19;9.90;99.90
2571;DHT22;1295;51.130;6.732;2023-12-29T08:31:45;9.90;99.90
2571;DHT22;1295;51.130;6.732;2023-12-29T08:34:10;9.90;99.90
2571;DHT22;1295;51.130;6.732;2023-12-29T08:36:36;10.00;99.90
2571;DHT22;1295;51.130;6.732;2023-12-29T08:39:02;10.10;99.90
2571;DHT22;1295;51.130;6.732;2023-12-29T08:41:34;10.00;99.90
2571;DHT22;1295;51.130;6.732;2023-12-29T08:44:00;9.90;99.90
2571;DHT22;1295;51.130;6.732;2023-12-29T08:46:26;9.90;99.90
2571;DHT22;1295;51.130;6.732;2023-12-29T08:48:51;9.90;99.90
2571;DHT22;1295;51.130;6.732;2023-12-29T08:51:18;9.80;99.90
2571;DHT22;1295;51.130;6.732;2023-12-29T08:53:43;9.80;99.90
2571;DHT22;1295;51.130;6.732;2023-12-29T08:56:09;9.90;99.90
2571;DHT22;1295;51.130;6.732;2023-12-29T08:58:35;9.90;99.90
2571;DHT22;1295;51.130;6.732;2023-12-29T09:01:00;9.90;99.90
2571;DHT22;1295;51.130;6.732;2023-12-29T09:03:26;9.90;99.90
2571;DHT22;1295;51.130;6.732;2023-12-29T09:05:51;9.90;99.90
2571;DHT22;1295;51.130;6.732;2023-12-29T09:08:18;10.00;99.90
2571;DHT22;1295;51.130;6.732;2023-12-29T09:10:43;9.90;99.90
2571;DHT22;1295;51.130;6.732;2023-12-29T09:13:09;9.80;99.90
2571;DHT22;1295;51.130;6.732;2023-12-29T09:15:35;9.80;99.90
2571;DHT22;1295;51.130;6.732;2023-12-29T09:18:06;9.70;99.90
2571;DHT22;1295;51.130;6.732;2023-12-29T09:20:42;9.70;99.90
2571;DHT22;1295;51.130;6.732;2023-12-29T09:23:08;9.80;99.90
2571;DHT22;1295;51.130;6.732;2023-12-29T09:25:33;9.70;99.90
2571;DHT22;1295;51.130;6.732;2023-12-29T09:27:59;9.90;99.90
2571;DHT22;1295;51.130;6.732;2023-12-29T09:30:24;9.90;99.90
2571;DHT22;1295;51.130;6.732;2023-12-29T09:32:51;9.90;99.90
2571;DHT22;1295;51.130;6.732;2023-12-29T09:35:17;9.90;99.90
2571;DHT22;1295;51.130;6.732;2023-12-29T09:37:43;9.80;99.90
2571;DHT22;1295;51.130;6.732;2023-12-29T09:40:10;9.80;99.90
2571;DHT22;1295;51.130;6.732;2023-12-29T09:42:36;9.80;99.90
2571;DHT22;1295;51.130;6.732;2023-12-29T09:45:02;9.80;99.90
2571;DHT22;1295;51.130;6.732;2023-12-29T09:47:28;9.90;99.90
2571;DHT22;1295;51.130;6.732;2023-12-29T09:49:54;9.90;99.90
2571;DHT22;1295;51.130;6.732;2023-12-29T09:52:20;9.90;99.90
2571;DHT22;1295;51.130;6.732;2023-12-29T09:54:45;9.90;99.90
2571;DHT22;1295;51.130;6.732;2023-12-29T09:57:11;9.90;99.90
2571;DHT22;1295;51.130;6.732;2023-12-29T09:59:36;10.00;99.90
2571;DHT22;1295;51.130;6.732;2023-12-29T10:02:03;10.00;99.90
2571;DHT22;1295;51.130;6.732;2023-12-29T10:04:28;10.00;99.90
2571;DHT22;1295;51.130;6.732;2023-12-29T10:06:53;10.00;99.90
2571;DHT22;1295;51.130;6.732;2023-12-29T10:09:19;10.00;99.90
2571;DHT22;1295;51.130;6.732;2023-12-29T10:11:45;10.10;99.90
2571;DHT22;1295;51.130;6.732;2023-12-29T10:14:19;10.10;99.90
2571;DHT22;1295;51.130;6.732;2023-12-29T10:16:42;10.10;99.90
2571;DHT22;1295;51.130;6.732;2023-12-29T10:19:14;10.10;99.90
2571;DHT22;1295;51.130;6.732;2023-12-29T10:21:53;10.10;99.90
2571;DHT22;1295;51.130;6.732;2023-12-29T10:24:17;10.10;99.90
2571;DHT22;1295;51.130;6.732;2023-12-29T10:26:43;10.10;99.90
2571;DHT22;1295;51.130;6.732;2023-12-29T10:29:10;10.20;99.90
2571;DHT22;1295;51.130;6.732;2023-12-29T10:31:35;10.20;99.90
2571;DHT22;1295;51.130;6.732;2023-12-29T10:36:49;10.20;99.90
2571;DHT22;1295;51.130;6.732;2023-12-29T10:39:15;10.20;99.90
2571;DHT22;1295;51.130;6.732;2023-12-29T10:41:41;10.20;99.90
2571;DHT22;1295;51.130;6.732;2023-12-29T10:44:08;10.20;99.90
2571;DHT22;1295;51.130;6.732;2023-12-29T10:46:33;10.20;99.90
2571;DHT22;1295;51.130;6.732;2023-12-29T10:51:31;10.30;99.90
2571;DHT22;1295;51.130;6.732;2023-12-29T10:53:56;10.30;99.90
2571;DHT22;1295;51.130;6.732;2023-12-29T10:56:22;10.40;99.90
2571;DHT22;1295;51.130;6.732;2023-12-29T11:01:19;10.40;99.90
2571;DHT22;1295;51.130;6.732;2023-12-29T11:03:48;10.60;99.90
2571;DHT22;1295;51.130;6.732;2023-12-29T11:06:11;10.80;99.90
2571;DHT22;1295;51.130;6.732;2023-12-29T11:08:37;10.70;99.90
2571;DHT22;1295;51.130;6.732;2023-12-29T11:11:04;10.60;99.90
2571;DHT22;1295;51.130;6.732;2023-12-29T11:13:29;10.70;99.90
2571;DHT22;1295;51.130;6.732;2023-12-29T11:15:55;10.70;99.90
2571;DHT22;1295;51.130;6.732;2023-12-29T11:18:20;10.70;99.90
2571;DHT22;1295;51.130;6.732;2023-12-29T11:20:46;10.70;99.90
2571;DHT22;1295;51.130;6.732;2023-12-29T11:23:12;10.80;99.90
2571;DHT22;1295;51.130;6.732;2023-12-29T11:25:39;10.70;99.90
2571;DHT22;1295;51.130;6.732;2023-12-29T11:28:06;10.70;99.90
2571;DHT22;1295;51.130;6.732;2023-12-29T11:30:36;10.70;99.90
2571;DHT22;1295;51.130;6.732;2023-12-29T11:33:17;10.70;99.90
2571;DHT22;1295;51.130;6.732;2023-12-29T11:35:45;10.70;99.90
2571;DHT22;1295;51.130;6.732;2023-12-29T11:38:24;10.70;99.90
2571;DHT22;1295;51.130;6.732;2023-12-29T11:40:51;10.80;99.90
2571;DHT22;1295;51.130;6.732;2023-12-29T11:43:15;10.80;99.90
2571;DHT22;1295;51.130;6.732;2023-12-29T11:45:40;10.70;99.90
2571;DHT22;1295;51.130;6.732;2023-12-29T11:48:06;10.80;99.90
2571;DHT22;1295;51.130;6.732;2023-12-29T11:50:34;10.70;99.90
2571;DHT22;1295;51.130;6.732;2023-12-29T11:52:59;10.70;99.90
2571;DHT22;1295;51.130;6.732;2023-12-29T11:55:39;10.70;99.90
2571;DHT22;1295;51.130;6.732;2023-12-29T11:58:23;10.70;99.90
2571;DHT22;1295;51.130;6.732;2023-12-29T12:00:41;10.60;99.90
2571;DHT22;1295;51.130;6.732;2023-12-29T12:05:44;10.60;99.90
2571;DHT22;1295;51.130;6.732;2023-12-29T12:08:09;10.60;99.90
2571;DHT22;1295;51.130;6.732;2023-12-29T12:10:36;10.60;99.90
2571;DHT22;1295;51.130;6.732;2023-12-29T12:13:02;10.60;99.90
2571;DHT22;1295;51.130;6.732;2023-12-29T12:15:31;10.60;99.90
2571;DHT22;1295;51.130;6.732;2023-12-29T12:18:00;10.60;99.90
2571;DHT22;1295;51.130;6.732;2023-12-29T12:20:25;10.60;99.90
2571;DHT22;1295;51.130;6.732;2023-12-29T12:23:22;10.60;99.90
2571;DHT22;1295;51.130;6.732;2023-12-29T12:25:31;10.60;99.90
2571;DHT22;1295;51.130;6.732;2023-12-29T12:27:57;10.60;99.90
2571;DHT22;1295;51.130;6.732;2023-12-29T12:30:22;10.60;99.90
2571;DHT22;1295;51.130;6.732;2023-12-29T12:32:57;10.60;99.90
2571;DHT22;1295;51.130;6.732;2023-12-29T12:35:22;10.60;99.90
2571;DHT22;1295;51.130;6.732;2023-12-29T12:37:48;10.60;99.90
2571;DHT22;1295;51.130;6.732;2023-12-29T12:40:29;10.50;99.90
2571;DHT22;1295;51.130;6.732;2023-12-29T12:42:54;10.50;99.90
2571;DHT22;1295;51.130;6.732;2023-12-29T12:45:20;10.50;99.90
2571;DHT22;1295;51.130;6.732;2023-12-29T12:47:50;10.50;99.90
2571;DHT22;1295;51.130;6.732;2023-12-29T12:50:13;10.50;99.90
2571;DHT22;1295;51.130;6.732;2023-12-29T12:52:38;10.50;99.90
2571;DHT22;1295;51.130;6.732;2023-12-29T12:55:06;10.50;99.90
2571;DHT22;1295;51.130;6.732;2023-12-29T12:57:31;10.50;99.90
2571;DHT22;1295;51.130;6.732;2023-12-29T12:59:56;10.50;99.90
2571;DHT22;1295;51.130;6.732;2023-12-29T13:02:22;10.50;99.90
2571;DHT22;1295;51.130;6.732;2023-12-29T13:04:48;10.60;99.90
2571;DHT22;1295;51.130;6.732;2023-12-29T13:07:16;10.60;99.90
2571;DHT22;1295;51.130;6.732;2023-12-29T13:09:41;10.60;99.90
2571;DHT22;1295;51.130;6.732;2023-12-29T13:12:08;10.60;99.90
2571;DHT22;1295;51.130;6.732;2023-12-29T13:14:34;10.60;99.90
2571;DHT22;1295;51.130;6.732;2023-12-29T13:17:04;10.60;99.90
2571;DHT22;1295;51.130;6.732;2023-12-29T13:19:25;10.60;99.90
2571;DHT22;1295;51.130;6.732;2023-12-29T13:21:52;10.60;99.90
2571;DHT22;1295;51.130;6.732;2023-12-29T13:24:16;10.60;99.90
2571;DHT22;1295;51.130;6.732;2023-12-29T13:26:44;10.60;99.90
2571;DHT22;1295;51.130;6.732;2023-12-29T13:29:08;10.60;99.90
2571;DHT22;1295;51.130;6.732;2023-12-29T13:31:34;10.60;99.90
2571;DHT22;1295;51.130;6.732;2023-12-29T13:34:01;10.60;99.90
2571;DHT22;1295;51.130;6.732;2023-12-29T13:36:38;10.70;99.90
2571;DHT22;1295;51.130;6.732;2023-12-29T13:39:06;10.70;99.90
2571;DHT22;1295;51.130;6.732;2023-12-29T13:41:28;10.70;99.90
2571;DHT22;1295;51.130;6.732;2023-12-29T13:43:55;10.70;99.90
2571;DHT22;1295;51.130;6.732;2023-12-29T13:46:21;10.60;99.90
2571;DHT22;1295;51.130;6.732;2023-12-29T13:48:47;10.60;99.90
2571;DHT22;1295;51.130;6.732;2023-12-29T13:51:12;10.60;99.90
2571;DHT22;1295;51.130;6.732;2023-12-29T13:53:38;10.70;99.90
2571;DHT22;1295;51.130;6.732;2023-12-29T13:56:07;10.60;99.90
2571;DHT22;1295;51.130;6.732;2023-12-29T13:58:32;10.60;99.90
2571;DHT22;1295;51.130;6.732;2023-12-29T14:01:04;10.60;99.90
2571;DHT22;1295;51.130;6.732;2023-12-29T14:03:31;10.60;99.90
2571;DHT22;1295;51.130;6.732;2023-12-29T14:06:00;10.60;99.90
2571;DHT22;1295;51.130;6.732;2023-12-29T14:08:27;10.60;99.90
2571;DHT22;1295;51.130;6.732;2023-12-29T14:10:53;10.60;99.90
2571;DHT22;1295;51.130;6.732;2023-12-29T14:13:20;10.60;99.90
2571;DHT22;1295;51.130;6.732;2023-12-29T14:15:46;10.60;99.90
2571;DHT22;1295;51.130;6.732;2023-12-29T14:18:22;10.60;99.90
2571;DHT22;1295;51.130;6.732;2023-12-29T14:20:41;10.60;99.90
2571;DHT22;1295;51.130;6.732;2023-12-29T14:23:06;10.60;99.90
2571;DHT22;1295;51.130;6.732;2023-12-29T14:25:34;10.50;99.90
2571;DHT22;1295;51.130;6.732;2023-12-29T14:27:59;10.40;99.90
2571;DHT22;1295;51.130;6.732;2023-12-29T14:30:26;10.40;99.90
2571;DHT22;1295;51.130;6.732;2023-12-29T14:32:51;10.30;99.90
2571;DHT22;1295;51.130;6.732;2023-12-29T14:35:17;10.40;99.90
2571;DHT22;1295;51.130;6.732;2023-12-29T14:37:43;10.40;99.90
2571;DHT22;1295;51.130;6.732;2023-12-29T14:40:11;10.40;99.90
2571;DHT22;1295;51.130;6.732;2023-12-29T14:42:36;10.40;99.90
2571;DHT22;1295;51.130;6.732;2023-12-29T14:45:08;10.40;99.90
2571;DHT22;1295;51.130;6.732;2023-12-29T14:47:33;10.40;99.90
2571;DHT22;1295;51.130;6.732;2023-12-29T14:49:59;10.40;99.90
2571;DHT22;1295;51.130;6.732;2023-12-29T14:52:25;10.40;99.90
2571;DHT22;1295;51.130;6.732;2023-12-29T14:54:51;10.40;99.90
2571;DHT22;1295;51.130;6.732;2023-12-29T14:57:17;10.40;99.90
2571;DHT22;1295;51.130;6.732;2023-12-29T14:59:43;10.40;99.90
2571;DHT22;1295;51.130;6.732;2023-12-29T15:02:09;10.50;99.90
2571;DHT22;1295;51.130;6.732;2023-12-29T15:04:35;10.40;99.90
2571;DHT22;1295;51.130;6.732;2023-12-29T15:07:00;10.30;99.90
2571;DHT22;1295;51.130;6.732;2023-12-29T15:09:26;10.30;99.90
2571;DHT22;1295;51.130;6.732;2023-12-29T15:11:51;10.30;99.90
2571;DHT22;1295;51.130;6.732;2023-12-29T15:14:17;10.40;99.90
2571;DHT22;1295;51.130;6.732;2023-12-29T15:16:43;10.30;99.90
2571;DHT22;1295;51.130;6.732;2023-12-29T15:19:08;10.30;99.90
2571;DHT22;1295;51.130;6.732;2023-12-29T15:21:34;10.30;99.90
2571;DHT22;1295;51.130;6.732;2023-12-29T15:23:59;10.30;99.90
2571;DHT22;1295;51.130;6.732;2023-12-29T15:26:26;10.30;99.90
2571;DHT22;1295;51.130;6.732;2023-12-29T15:28:51;10.30;99.90
2571;DHT22;1295;51.130;6.732;2023-12-29T15:31:17;10.40;99.90
2571;DHT22;1295;51.130;6.732;2023-12-29T15:33:43;10.30;99.90
2571;DHT22;1295;51.130;6.732;2023-12-29T15:36:12;10.30;99.90
2571;DHT22;1295;51.130;6.732;2023-12-29T15:38:38;10.30;99.90
2571;DHT22;1295;51.130;6.732;2023-12-29T15:41:03;10.30;99.90
2571;DHT22;1295;51.130;6.732;2023-12-29T15:43:29;10.30;99.90
2571;DHT22;1295;51.130;6.732;2023-12-29T15:45:55;10.30;99.90
2571;DHT22;1295;51.130;6.732;2023-12-29T15:48:20;10.20;99.90
2571;DHT22;1295;51.130;6.732;2023-12-29T15:50:46;10.20;99.90
2571;DHT22;1295;51.130;6.732;2023-12-29T15:53:12;10.20;99.90
2571;DHT22;1295;51.130;6.732;2023-12-29T15:55:38;10.20;99.90
2571;DHT22;1295;51.130;6.732;2023-12-29T15:58:04;10.30;99.90
2571;DHT22;1295;51.130;6.732;2023-12-29T16:00:30;10.20;99.90
2571;DHT22;1295;51.130;6.732;2023-12-29T16:02:56;10.20;99.90
2571;DHT22;1295;51.130;6.732;2023-12-29T16:05:23;10.20;99.90